sensor_id;sensor_type;location;lat;lon;timestamp;P1;durP1;ratioP1;P2;durP2;ratioP2
26598;SDS011;14240;51.064;16.612;2023-05-07T00:00:39;18.60;;;11.55;;
26598;SDS011;14240;51.064;16.612;2023-05-07T00:03:05;18.40;;;10.70;;
26598;SDS011;14240;51.064;16.612;2023-05-07T00:05:31;16.67;;;11.52;;
26598;SDS011;14240;51.064;16.612;2023-05-07T00:07:57;18.88;;;9.98;;
26598;SDS011;14240;51.064;16.612;2023-05-07T00:10:23;16.98;;;10.60;;
26598;SDS011;14240;51.064;16.612;2023-05-07T00:12:48;21.40;;;11.32;;
26598;SDS011;14240;51.064;16.612;2023-05-07T00:15:14;18.48;;;10.27;;
26598;SDS011;14240;51.064;16.612;2023-05-07T00:17:40;19.20;;;10.73;;
26598;SDS011;14240;51.064;16.612;2023-05-07T00:20:06;21.38;;;11.43;;
26598;SDS011;14240;51.064;16.612;2023-05-07T00:22:32;19.33;;;10.27;;
26598;SDS011;14240;51.064;16.612;2023-05-07T00:24:58;16.52;;;11.00;;
26598;SDS011;14240;51.064;16.612;2023-05-07T00:27:24;17.33;;;11.05;;
26598;SDS011;14240;51.064;16.612;2023-05-07T00:29:50;18.83;;;11.07;;
26598;SDS011;14240;51.064;16.612;2023-05-07T00:32:16;19.40;;;10.15;;
26598;SDS011;14240;51.064;16.612;2023-05-07T00:34:42;19.38;;;10.30;;
26598;SDS011;14240;51.064;16.612;2023-05-07T00:37:08;19.65;;;10.80;;
26598;SDS011;14240;51.064;16.612;2023-05-07T00:39:34;18.88;;;10.05;;
26598;SDS011;14240;51.064;16.612;2023-05-07T00:42:01;15.73;;;10.70;;
26598;SDS011;14240;51.064;16.612;2023-05-07T00:44:27;17.10;;;10.60;;
26598;SDS011;14240;51.064;16.612;2023-05-07T00:46:54;20.37;;;10.47;;
26598;SDS011;14240;51.064;16.612;2023-05-07T00:49:22;20.55;;;10.80;;
26598;SDS011;14240;51.064;16.612;2023-05-07T00:51:55;19.83;;;10.70;;
26598;SDS011;14240;51.064;16.612;2023-05-07T00:54:21;19.58;;;10.15;;
26598;SDS011;14240;51.064;16.612;2023-05-07T00:56:47;18.88;;;10.38;;
26598;SDS011;14240;51.064;16.612;2023-05-07T00:59:13;15.70;;;9.70;;
26598;SDS011;14240;51.064;16.612;2023-05-07T01:01:38;20.30;;;10.48;;
26598;SDS011;14240;51.064;16.612;2023-05-07T01:04:04;17.65;;;10.57;;
26598;SDS011;14240;51.064;16.612;2023-05-07T01:06:30;15.70;;;11.10;;
26598;SDS011;14240;51.064;16.612;2023-05-07T01:11:24;19.05;;;9.88;;
26598;SDS011;14240;51.064;16.612;2023-05-07T01:13:51;15.35;;;9.93;;
26598;SDS011;14240;51.064;16.612;2023-05-07T01:16:17;22.83;;;10.25;;
26598;SDS011;14240;51.064;16.612;2023-05-07T01:18:43;18.35;;;9.77;;
26598;SDS011;14240;51.064;16.612;2023-05-07T01:21:09;16.48;;;10.77;;
26598;SDS011;14240;51.064;16.612;2023-05-07T01:26:03;15.95;;;9.55;;
26598;SDS011;14240;51.064;16.612;2023-05-07T01:28:29;13.85;;;9.00;;
26598;SDS011;14240;51.064;16.612;2023-05-07T01:30:58;16.52;;;8.77;;
26598;SDS011;14240;51.064;16.612;2023-05-07T01:33:31;15.38;;;9.20;;
26598;SDS011;14240;51.064;16.612;2023-05-07T01:36:00;18.00;;;9.05;;
26598;SDS011;14240;51.064;16.612;2023-05-07T01:38:28;14.43;;;9.63;;
26598;SDS011;14240;51.064;16.612;2023-05-07T01:40:55;17.63;;;9.68;;
26598;SDS011;14240;51.064;16.612;2023-05-07T01:43:21;14.95;;;8.68;;
26598;SDS011;14240;51.064;16.612;2023-05-07T01:45:47;16.92;;;9.23;;
26598;SDS011;14240;51.064;16.612;2023-05-07T01:48:14;15.93;;;8.50;;
26598;SDS011;14240;51.064;16.612;2023-05-07T01:50:41;17.23;;;8.88;;
26598;SDS011;14240;51.064;16.612;2023-05-07T01:53:08;19.23;;;9.32;;
26598;SDS011;14240;51.064;16.612;2023-05-07T01:55:34;14.30;;;9.40;;
26598;SDS011;14240;51.064;16.612;2023-05-07T01:58:01;16.92;;;9.98;;
26598;SDS011;14240;51.064;16.612;2023-05-07T02:00:28;15.10;;;9.35;;
26598;SDS011;14240;51.064;16.612;2023-05-07T02:02:54;14.85;;;9.00;;
26598;SDS011;14240;51.064;16.612;2023-05-07T02:05:19;13.98;;;10.13;;
26598;SDS011;14240;51.064;16.612;2023-05-07T02:07:45;16.50;;;9.55;;
26598;SDS011;14240;51.064;16.612;2023-05-07T02:10:11;24.05;;;10.68;;
26598;SDS011;14240;51.064;16.612;2023-05-07T02:12:37;17.95;;;11.32;;
26598;SDS011;14240;51.064;16.612;2023-05-07T02:15:02;22.58;;;12.82;;
26598;SDS011;14240;51.064;16.612;2023-05-07T02:17:28;16.65;;;10.82;;
26598;SDS011;14240;51.064;16.612;2023-05-07T02:19:56;17.63;;;11.88;;
26598;SDS011;14240;51.064;16.612;2023-05-07T02:22:22;19.13;;;10.50;;
26598;SDS011;14240;51.064;16.612;2023-05-07T02:24:48;20.27;;;10.52;;
26598;SDS011;14240;51.064;16.612;2023-05-07T02:27:14;18.95;;;10.60;;
26598;SDS011;14240;51.064;16.612;2023-05-07T02:29:39;19.15;;;11.02;;
26598;SDS011;14240;51.064;16.612;2023-05-07T02:32:05;19.10;;;11.15;;
26598;SDS011;14240;51.064;16.612;2023-05-07T02:34:31;21.08;;;12.30;;
26598;SDS011;14240;51.064;16.612;2023-05-07T02:36:57;19.70;;;11.35;;
26598;SDS011;14240;51.064;16.612;2023-05-07T02:39:22;16.80;;;11.23;;
26598;SDS011;14240;51.064;16.612;2023-05-07T02:41:48;18.45;;;10.88;;
26598;SDS011;14240;51.064;16.612;2023-05-07T02:44:14;24.00;;;11.63;;
26598;SDS011;14240;51.064;16.612;2023-05-07T02:46:40;19.10;;;11.50;;
26598;SDS011;14240;51.064;16.612;2023-05-07T02:49:05;19.77;;;11.93;;
26598;SDS011;14240;51.064;16.612;2023-05-07T02:51:31;20.10;;;12.20;;
26598;SDS011;14240;51.064;16.612;2023-05-07T02:53:57;19.33;;;11.55;;
26598;SDS011;14240;51.064;16.612;2023-05-07T02:56:25;18.15;;;10.65;;
26598;SDS011;14240;51.064;16.612;2023-05-07T02:58:53;17.63;;;10.68;;
26598;SDS011;14240;51.064;16.612;2023-05-07T03:01:19;18.20;;;10.73;;
26598;SDS011;14240;51.064;16.612;2023-05-07T03:03:45;16.23;;;11.20;;
26598;SDS011;14240;51.064;16.612;2023-05-07T03:06:11;19.55;;;11.00;;
26598;SDS011;14240;51.064;16.612;2023-05-07T03:08:37;20.75;;;11.68;;
26598;SDS011;14240;51.064;16.612;2023-05-07T03:11:03;18.35;;;11.60;;
26598;SDS011;14240;51.064;16.612;2023-05-07T03:13:28;16.20;;;10.10;;
26598;SDS011;14240;51.064;16.612;2023-05-07T03:15:54;19.55;;;11.00;;
26598;SDS011;14240;51.064;16.612;2023-05-07T03:18:20;18.42;;;11.05;;
26598;SDS011;14240;51.064;16.612;2023-05-07T03:20:45;20.85;;;11.23;;
26598;SDS011;14240;51.064;16.612;2023-05-07T03:23:12;16.90;;;10.67;;
26598;SDS011;14240;51.064;16.612;2023-05-07T03:25:38;17.58;;;10.50;;
26598;SDS011;14240;51.064;16.612;2023-05-07T03:28:04;18.23;;;10.65;;
26598;SDS011;14240;51.064;16.612;2023-05-07T03:30:30;18.95;;;10.55;;
26598;SDS011;14240;51.064;16.612;2023-05-07T03:32:56;17.88;;;10.65;;
26598;SDS011;14240;51.064;16.612;2023-05-07T03:35:22;18.73;;;10.95;;
26598;SDS011;14240;51.064;16.612;2023-05-07T03:37:47;21.45;;;12.25;;
26598;SDS011;14240;51.064;16.612;2023-05-07T03:40:13;17.98;;;10.70;;
26598;SDS011;14240;51.064;16.612;2023-05-07T03:42:39;20.50;;;11.13;;
26598;SDS011;14240;51.064;16.612;2023-05-07T03:45:05;20.90;;;11.88;;
26598;SDS011;14240;51.064;16.612;2023-05-07T03:47:32;18.38;;;12.60;;
26598;SDS011;14240;51.064;16.612;2023-05-07T03:49:57;19.65;;;12.38;;
26598;SDS011;14240;51.064;16.612;2023-05-07T03:52:24;21.42;;;11.80;;
26598;SDS011;14240;51.064;16.612;2023-05-07T03:54:51;21.13;;;12.80;;
26598;SDS011;14240;51.064;16.612;2023-05-07T03:57:18;25.20;;;13.17;;
26598;SDS011;14240;51.064;16.612;2023-05-07T03:59:43;24.20;;;12.43;;
26598;SDS011;14240;51.064;16.612;2023-05-07T04:02:09;19.13;;;11.32;;
26598;SDS011;14240;51.064;16.612;2023-05-07T04:04:35;20.35;;;12.40;;
26598;SDS011;14240;51.064;16.612;2023-05-07T04:07:00;23.42;;;12.95;;
26598;SDS011;14240;51.064;16.612;2023-05-07T04:09:26;28.83;;;12.85;;
26598;SDS011;14240;51.064;16.612;2023-05-07T04:11:52;23.88;;;12.52;;
26598;SDS011;14240;51.064;16.612;2023-05-07T04:14:18;25.17;;;12.57;;
26598;SDS011;14240;51.064;16.612;2023-05-07T04:16:43;19.63;;;12.02;;
26598;SDS011;14240;51.064;16.612;2023-05-07T04:19:09;19.70;;;12.32;;
26598;SDS011;14240;51.064;16.612;2023-05-07T04:21:35;23.20;;;12.10;;
26598;SDS011;14240;51.064;16.612;2023-05-07T04:24:02;18.77;;;12.13;;
26598;SDS011;14240;51.064;16.612;2023-05-07T04:26:28;17.80;;;12.48;;
26598;SDS011;14240;51.064;16.612;2023-05-07T04:28:54;20.58;;;12.45;;
26598;SDS011;14240;51.064;16.612;2023-05-07T04:31:20;19.80;;;11.75;;
26598;SDS011;14240;51.064;16.612;2023-05-07T04:33:46;19.98;;;11.18;;
26598;SDS011;14240;51.064;16.612;2023-05-07T04:36:11;17.50;;;11.88;;
26598;SDS011;14240;51.064;16.612;2023-05-07T04:38:37;21.85;;;11.63;;
26598;SDS011;14240;51.064;16.612;2023-05-07T04:41:04;19.85;;;10.98;;
26598;SDS011;14240;51.064;16.612;2023-05-07T04:43:31;20.83;;;11.18;;
26598;SDS011;14240;51.064;16.612;2023-05-07T04:45:56;20.58;;;11.88;;
26598;SDS011;14240;51.064;16.612;2023-05-07T04:48:22;21.48;;;11.10;;
26598;SDS011;14240;51.064;16.612;2023-05-07T04:50:48;24.27;;;12.70;;
26598;SDS011;14240;51.064;16.612;2023-05-07T04:53:15;25.77;;;12.67;;
26598;SDS011;14240;51.064;16.612;2023-05-07T04:55:42;19.13;;;11.43;;
26598;SDS011;14240;51.064;16.612;2023-05-07T04:58:08;16.40;;;10.15;;
26598;SDS011;14240;51.064;16.612;2023-05-07T05:00:34;17.98;;;10.10;;
26598;SDS011;14240;51.064;16.612;2023-05-07T05:03:00;22.30;;;10.57;;
26598;SDS011;14240;51.064;16.612;2023-05-07T05:05:26;13.85;;;8.88;;
26598;SDS011;14240;51.064;16.612;2023-05-07T05:07:51;15.93;;;10.85;;
26598;SDS011;14240;51.064;16.612;2023-05-07T05:10:17;19.13;;;11.05;;
26598;SDS011;14240;51.064;16.612;2023-05-07T05:12:43;24.55;;;12.60;;
26598;SDS011;14240;51.064;16.612;2023-05-07T05:15:10;19.95;;;11.52;;
26598;SDS011;14240;51.064;16.612;2023-05-07T05:17:37;21.08;;;13.80;;
26598;SDS011;14240;51.064;16.612;2023-05-07T05:20:04;20.27;;;12.05;;
26598;SDS011;14240;51.064;16.612;2023-05-07T05:22:31;20.93;;;12.20;;
26598;SDS011;14240;51.064;16.612;2023-05-07T05:24:57;17.15;;;11.15;;
26598;SDS011;14240;51.064;16.612;2023-05-07T05:27:23;17.92;;;12.07;;
26598;SDS011;14240;51.064;16.612;2023-05-07T05:29:48;16.38;;;11.23;;
26598;SDS011;14240;51.064;16.612;2023-05-07T05:32:14;20.58;;;12.10;;
26598;SDS011;14240;51.064;16.612;2023-05-07T05:34:40;15.27;;;10.38;;
26598;SDS011;14240;51.064;16.612;2023-05-07T05:37:06;18.92;;;11.63;;
26598;SDS011;14240;51.064;16.612;2023-05-07T05:39:31;14.57;;;9.85;;
26598;SDS011;14240;51.064;16.612;2023-05-07T05:41:57;17.88;;;10.23;;
26598;SDS011;14240;51.064;16.612;2023-05-07T05:44:23;20.98;;;10.00;;
26598;SDS011;14240;51.064;16.612;2023-05-07T05:46:49;18.25;;;11.00;;
26598;SDS011;14240;51.064;16.612;2023-05-07T05:49:15;18.45;;;9.48;;
26598;SDS011;14240;51.064;16.612;2023-05-07T05:51:40;13.68;;;9.45;;
26598;SDS011;14240;51.064;16.612;2023-05-07T05:54:06;12.95;;;8.55;;
26598;SDS011;14240;51.064;16.612;2023-05-07T05:56:32;13.15;;;8.98;;
26598;SDS011;14240;51.064;16.612;2023-05-07T06:02:04;11.70;;;7.38;;
26598;SDS011;14240;51.064;16.612;2023-05-07T06:04:31;8.88;;;6.68;;
26598;SDS011;14240;51.064;16.612;2023-05-07T06:06:56;17.73;;;7.57;;
26598;SDS011;14240;51.064;16.612;2023-05-07T06:09:22;10.88;;;6.32;;
26598;SDS011;14240;51.064;16.612;2023-05-07T06:11:48;16.02;;;6.90;;
26598;SDS011;14240;51.064;16.612;2023-05-07T06:14:13;12.10;;;6.50;;
26598;SDS011;14240;51.064;16.612;2023-05-07T06:16:39;8.23;;;6.65;;
26598;SDS011;14240;51.064;16.612;2023-05-07T06:19:05;8.43;;;6.10;;
26598;SDS011;14240;51.064;16.612;2023-05-07T06:21:31;9.38;;;6.05;;
26598;SDS011;14240;51.064;16.612;2023-05-07T06:23:56;9.25;;;6.03;;
26598;SDS011;14240;51.064;16.612;2023-05-07T06:26:22;9.77;;;6.40;;
26598;SDS011;14240;51.064;16.612;2023-05-07T06:28:48;8.73;;;5.70;;
26598;SDS011;14240;51.064;16.612;2023-05-07T06:31:14;8.15;;;5.60;;
26598;SDS011;14240;51.064;16.612;2023-05-07T06:33:41;9.57;;;6.18;;
26598;SDS011;14240;51.064;16.612;2023-05-07T06:36:07;11.48;;;7.07;;
26598;SDS011;14240;51.064;16.612;2023-05-07T06:38:33;12.07;;;6.03;;
26598;SDS011;14240;51.064;16.612;2023-05-07T06:40:59;9.00;;;6.03;;
26598;SDS011;14240;51.064;16.612;2023-05-07T06:43:24;9.18;;;5.82;;
26598;SDS011;14240;51.064;16.612;2023-05-07T06:45:50;9.25;;;5.95;;
26598;SDS011;14240;51.064;16.612;2023-05-07T06:48:16;8.80;;;5.75;;
26598;SDS011;14240;51.064;16.612;2023-05-07T06:50:41;7.80;;;5.60;;
26598;SDS011;14240;51.064;16.612;2023-05-07T06:53:07;8.15;;;5.97;;
26598;SDS011;14240;51.064;16.612;2023-05-07T06:55:33;7.88;;;5.55;;
26598;SDS011;14240;51.064;16.612;2023-05-07T06:57:58;8.80;;;6.10;;
26598;SDS011;14240;51.064;16.612;2023-05-07T07:00:26;8.68;;;5.22;;
26598;SDS011;14240;51.064;16.612;2023-05-07T07:02:53;6.40;;;5.00;;
26598;SDS011;14240;51.064;16.612;2023-05-07T07:05:19;6.80;;;4.25;;
26598;SDS011;14240;51.064;16.612;2023-05-07T07:07:45;6.95;;;4.75;;
26598;SDS011;14240;51.064;16.612;2023-05-07T07:10:20;6.15;;;4.07;;
26598;SDS011;14240;51.064;16.612;2023-05-07T07:12:49;6.70;;;4.53;;
26598;SDS011;14240;51.064;16.612;2023-05-07T07:15:15;7.35;;;4.75;;
26598;SDS011;14240;51.064;16.612;2023-05-07T07:17:41;6.93;;;4.88;;
26598;SDS011;14240;51.064;16.612;2023-05-07T07:20:07;7.90;;;5.07;;
26598;SDS011;14240;51.064;16.612;2023-05-07T07:22:33;8.35;;;5.65;;
26598;SDS011;14240;51.064;16.612;2023-05-07T07:24:59;7.50;;;5.35;;
26598;SDS011;14240;51.064;16.612;2023-05-07T07:27:24;8.38;;;5.65;;
26598;SDS011;14240;51.064;16.612;2023-05-07T07:29:50;6.50;;;5.28;;
26598;SDS011;14240;51.064;16.612;2023-05-07T07:32:16;6.95;;;5.20;;
26598;SDS011;14240;51.064;16.612;2023-05-07T07:34:42;8.07;;;5.35;;
26598;SDS011;14240;51.064;16.612;2023-05-07T07:37:07;8.30;;;4.90;;
26598;SDS011;14240;51.064;16.612;2023-05-07T07:39:33;9.50;;;5.75;;
26598;SDS011;14240;51.064;16.612;2023-05-07T07:41:59;6.93;;;4.80;;
26598;SDS011;14240;51.064;16.612;2023-05-07T07:44:25;6.55;;;5.22;;
26598;SDS011;14240;51.064;16.612;2023-05-07T07:46:52;6.55;;;4.68;;
26598;SDS011;14240;51.064;16.612;2023-05-07T07:49:18;8.65;;;5.03;;
26598;SDS011;14240;51.064;16.612;2023-05-07T07:51:43;6.28;;;4.75;;
26598;SDS011;14240;51.064;16.612;2023-05-07T07:54:09;9.32;;;5.80;;
26598;SDS011;14240;51.064;16.612;2023-05-07T07:56:35;7.13;;;5.30;;
26598;SDS011;14240;51.064;16.612;2023-05-07T07:59:01;7.75;;;5.03;;
26598;SDS011;14240;51.064;16.612;2023-05-07T08:01:28;8.63;;;5.40;;
26598;SDS011;14240;51.064;16.612;2023-05-07T08:03:55;11.38;;;6.00;;
26598;SDS011;14240;51.064;16.612;2023-05-07T08:06:20;7.18;;;5.80;;
26598;SDS011;14240;51.064;16.612;2023-05-07T08:08:46;9.25;;;5.80;;
26598;SDS011;14240;51.064;16.612;2023-05-07T08:11:12;7.32;;;5.70;;
26598;SDS011;14240;51.064;16.612;2023-05-07T08:13:38;8.15;;;5.45;;
26598;SDS011;14240;51.064;16.612;2023-05-07T08:16:04;8.85;;;5.20;;
26598;SDS011;14240;51.064;16.612;2023-05-07T08:18:29;6.03;;;4.88;;
26598;SDS011;14240;51.064;16.612;2023-05-07T08:20:55;6.47;;;4.57;;
26598;SDS011;14240;51.064;16.612;2023-05-07T08:23:21;7.68;;;4.50;;
26598;SDS011;14240;51.064;16.612;2023-05-07T08:25:48;5.57;;;4.40;;
26598;SDS011;14240;51.064;16.612;2023-05-07T08:28:14;7.90;;;4.88;;
26598;SDS011;14240;51.064;16.612;2023-05-07T08:30:40;5.18;;;4.50;;
26598;SDS011;14240;51.064;16.612;2023-05-07T08:33:06;7.28;;;6.03;;
26598;SDS011;14240;51.064;16.612;2023-05-07T08:35:33;5.60;;;4.03;;
26598;SDS011;14240;51.064;16.612;2023-05-07T08:37:59;5.07;;;3.92;;
26598;SDS011;14240;51.064;16.612;2023-05-07T08:40:25;4.85;;;3.40;;
26598;SDS011;14240;51.064;16.612;2023-05-07T08:42:52;4.00;;;3.10;;
26598;SDS011;14240;51.064;16.612;2023-05-07T08:45:19;4.65;;;3.08;;
26598;SDS011;14240;51.064;16.612;2023-05-07T08:47:49;4.45;;;3.22;;
26598;SDS011;14240;51.064;16.612;2023-05-07T08:50:18;4.07;;;3.30;;
26598;SDS011;14240;51.064;16.612;2023-05-07T08:52:45;5.03;;;3.58;;
26598;SDS011;14240;51.064;16.612;2023-05-07T08:55:11;5.10;;;4.03;;
26598;SDS011;14240;51.064;16.612;2023-05-07T08:57:38;5.53;;;4.00;;
26598;SDS011;14240;51.064;16.612;2023-05-07T09:00:04;5.20;;;3.97;;
26598;SDS011;14240;51.064;16.612;2023-05-07T09:02:32;7.63;;;5.13;;
26598;SDS011;14240;51.064;16.612;2023-05-07T09:04:58;10.60;;;4.75;;
26598;SDS011;14240;51.064;16.612;2023-05-07T09:07:24;7.13;;;4.18;;
26598;SDS011;14240;51.064;16.612;2023-05-07T09:09:50;7.63;;;4.80;;
26598;SDS011;14240;51.064;16.612;2023-05-07T09:12:17;8.88;;;6.28;;
26598;SDS011;14240;51.064;16.612;2023-05-07T09:14:43;6.43;;;5.43;;
26598;SDS011;14240;51.064;16.612;2023-05-07T09:17:10;8.73;;;6.00;;
26598;SDS011;14240;51.064;16.612;2023-05-07T09:19:36;7.03;;;6.03;;
26598;SDS011;14240;51.064;16.612;2023-05-07T09:22:03;7.55;;;6.13;;
26598;SDS011;14240;51.064;16.612;2023-05-07T09:24:31;10.23;;;6.50;;
26598;SDS011;14240;51.064;16.612;2023-05-07T09:27:03;9.65;;;6.68;;
26598;SDS011;14240;51.064;16.612;2023-05-07T09:29:33;7.13;;;5.85;;
26598;SDS011;14240;51.064;16.612;2023-05-07T09:32:02;9.35;;;5.88;;
26598;SDS011;14240;51.064;16.612;2023-05-07T09:36:55;10.18;;;6.22;;
26598;SDS011;14240;51.064;16.612;2023-05-07T09:39:23;8.60;;;6.13;;
26598;SDS011;14240;51.064;16.612;2023-05-07T09:41:50;8.32;;;6.20;;
26598;SDS011;14240;51.064;16.612;2023-05-07T09:44:19;10.15;;;6.60;;
26598;SDS011;14240;51.064;16.612;2023-05-07T09:46:45;8.85;;;6.93;;
26598;SDS011;14240;51.064;16.612;2023-05-07T09:49:20;9.95;;;7.32;;
26598;SDS011;14240;51.064;16.612;2023-05-07T09:51:48;11.23;;;6.75;;
26598;SDS011;14240;51.064;16.612;2023-05-07T09:54:15;7.85;;;6.35;;
26598;SDS011;14240;51.064;16.612;2023-05-07T09:56:42;13.00;;;8.05;;
26598;SDS011;14240;51.064;16.612;2023-05-07T09:59:13;15.63;;;8.10;;
26598;SDS011;14240;51.064;16.612;2023-05-07T10:01:41;11.90;;;8.13;;
26598;SDS011;14240;51.064;16.612;2023-05-07T10:04:08;12.00;;;8.95;;
26598;SDS011;14240;51.064;16.612;2023-05-07T10:06:35;13.52;;;9.38;;
26598;SDS011;14240;51.064;16.612;2023-05-07T10:09:03;11.18;;;8.35;;
26598;SDS011;14240;51.064;16.612;2023-05-07T10:11:33;13.43;;;8.00;;
26598;SDS011;14240;51.064;16.612;2023-05-07T10:14:00;11.93;;;7.82;;
26598;SDS011;14240;51.064;16.612;2023-05-07T10:16:33;10.82;;;7.70;;
26598;SDS011;14240;51.064;16.612;2023-05-07T10:19:04;13.15;;;8.15;;
26598;SDS011;14240;51.064;16.612;2023-05-07T10:21:33;11.50;;;7.82;;
26598;SDS011;14240;51.064;16.612;2023-05-07T10:26:35;12.95;;;7.25;;
26598;SDS011;14240;51.064;16.612;2023-05-07T10:29:18;13.83;;;8.43;;
26598;SDS011;14240;51.064;16.612;2023-05-07T10:34:20;9.95;;;7.13;;
26598;SDS011;14240;51.064;16.612;2023-05-07T10:36:50;9.20;;;7.63;;
26598;SDS011;14240;51.064;16.612;2023-05-07T10:39:16;11.70;;;6.73;;
26598;SDS011;14240;51.064;16.612;2023-05-07T10:41:42;9.60;;;7.38;;
26598;SDS011;14240;51.064;16.612;2023-05-07T10:44:08;11.35;;;7.28;;
26598;SDS011;14240;51.064;16.612;2023-05-07T10:46:34;15.00;;;7.03;;
26598;SDS011;14240;51.064;16.612;2023-05-07T10:51:28;10.27;;;6.73;;
26598;SDS011;14240;51.064;16.612;2023-05-07T10:56:39;12.27;;;8.77;;
26598;SDS011;14240;51.064;16.612;2023-05-07T11:04:15;10.18;;;7.32;;
26598;SDS011;14240;51.064;16.612;2023-05-07T11:15:05;11.00;;;6.28;;
26598;SDS011;14240;51.064;16.612;2023-05-07T11:17:32;9.68;;;6.28;;
26598;SDS011;14240;51.064;16.612;2023-05-07T11:19:59;7.50;;;5.70;;
26598;SDS011;14240;51.064;16.612;2023-05-07T11:25:05;9.25;;;6.72;;
26598;SDS011;14240;51.064;16.612;2023-05-07T11:27:31;7.88;;;5.72;;
26598;SDS011;14240;51.064;16.612;2023-05-07T11:29:57;10.90;;;6.80;;
26598;SDS011;14240;51.064;16.612;2023-05-07T11:32:26;9.30;;;6.30;;
26598;SDS011;14240;51.064;16.612;2023-05-07T11:34:56;8.55;;;5.80;;
26598;SDS011;14240;51.064;16.612;2023-05-07T11:39:49;8.35;;;5.82;;
26598;SDS011;14240;51.064;16.612;2023-05-07T11:42:30;8.25;;;5.68;;
26598;SDS011;14240;51.064;16.612;2023-05-07T11:44:57;8.97;;;6.20;;
26598;SDS011;14240;51.064;16.612;2023-05-07T11:47:24;7.78;;;6.20;;
26598;SDS011;14240;51.064;16.612;2023-05-07T11:49:53;9.05;;;6.20;;
26598;SDS011;14240;51.064;16.612;2023-05-07T11:52:20;8.50;;;5.88;;
26598;SDS011;14240;51.064;16.612;2023-05-07T11:54:50;9.15;;;7.20;;
26598;SDS011;14240;51.064;16.612;2023-05-07T11:57:17;7.63;;;5.53;;
26598;SDS011;14240;51.064;16.612;2023-05-07T11:59:43;7.93;;;5.82;;
26598;SDS011;14240;51.064;16.612;2023-05-07T12:02:09;7.75;;;5.82;;
26598;SDS011;14240;51.064;16.612;2023-05-07T12:04:35;7.82;;;5.97;;
26598;SDS011;14240;51.064;16.612;2023-05-07T12:07:03;8.95;;;6.07;;
26598;SDS011;14240;51.064;16.612;2023-05-07T12:09:28;10.63;;;5.35;;
26598;SDS011;14240;51.064;16.612;2023-05-07T12:11:54;8.25;;;5.60;;
26598;SDS011;14240;51.064;16.612;2023-05-07T12:14:21;8.05;;;5.05;;
26598;SDS011;14240;51.064;16.612;2023-05-07T12:16:46;8.65;;;5.78;;
26598;SDS011;14240;51.064;16.612;2023-05-07T12:19:12;7.57;;;5.38;;
26598;SDS011;14240;51.064;16.612;2023-05-07T12:21:39;11.15;;;6.03;;
26598;SDS011;14240;51.064;16.612;2023-05-07T12:24:05;8.95;;;6.20;;
26598;SDS011;14240;51.064;16.612;2023-05-07T12:26:31;6.63;;;4.95;;
26598;SDS011;14240;51.064;16.612;2023-05-07T12:28:57;6.90;;;4.95;;
26598;SDS011;14240;51.064;16.612;2023-05-07T12:31:25;6.55;;;4.63;;
26598;SDS011;14240;51.064;16.612;2023-05-07T12:33:51;7.35;;;5.43;;
26598;SDS011;14240;51.064;16.612;2023-05-07T12:36:17;6.57;;;4.80;;
26598;SDS011;14240;51.064;16.612;2023-05-07T12:38:43;7.18;;;5.30;;
26598;SDS011;14240;51.064;16.612;2023-05-07T12:41:09;6.88;;;5.40;;
26598;SDS011;14240;51.064;16.612;2023-05-07T12:43:37;8.82;;;5.82;;
26598;SDS011;14240;51.064;16.612;2023-05-07T12:46:05;9.13;;;5.63;;
26598;SDS011;14240;51.064;16.612;2023-05-07T12:48:32;7.00;;;5.20;;
26598;SDS011;14240;51.064;16.612;2023-05-07T12:50:59;7.25;;;5.57;;
26598;SDS011;14240;51.064;16.612;2023-05-07T12:53:26;7.88;;;5.28;;
26598;SDS011;14240;51.064;16.612;2023-05-07T12:55:56;6.47;;;4.82;;
26598;SDS011;14240;51.064;16.612;2023-05-07T13:00:52;7.63;;;4.88;;
26598;SDS011;14240;51.064;16.612;2023-05-07T13:03:25;9.50;;;5.05;;
26598;SDS011;14240;51.064;16.612;2023-05-07T13:05:57;6.13;;;4.95;;
26598;SDS011;14240;51.064;16.612;2023-05-07T13:08:25;6.03;;;4.50;;
26598;SDS011;14240;51.064;16.612;2023-05-07T13:13:18;8.57;;;4.20;;
26598;SDS011;14240;51.064;16.612;2023-05-07T13:15:45;7.53;;;5.32;;
26598;SDS011;14240;51.064;16.612;2023-05-07T13:18:11;5.68;;;4.78;;
26598;SDS011;14240;51.064;16.612;2023-05-07T13:20:36;4.85;;;4.07;;
26598;SDS011;14240;51.064;16.612;2023-05-07T13:23:03;7.43;;;5.03;;
26598;SDS011;14240;51.064;16.612;2023-05-07T13:25:29;6.80;;;5.38;;
26598;SDS011;14240;51.064;16.612;2023-05-07T13:27:58;8.23;;;4.95;;
26598;SDS011;14240;51.064;16.612;2023-05-07T13:30:24;6.50;;;5.35;;
26598;SDS011;14240;51.064;16.612;2023-05-07T13:32:51;8.05;;;5.72;;
26598;SDS011;14240;51.064;16.612;2023-05-07T13:35:20;11.13;;;6.03;;
26598;SDS011;14240;51.064;16.612;2023-05-07T13:37:46;8.15;;;5.32;;
26598;SDS011;14240;51.064;16.612;2023-05-07T13:40:13;8.18;;;5.95;;
26598;SDS011;14240;51.064;16.612;2023-05-07T13:42:38;9.15;;;6.50;;
26598;SDS011;14240;51.064;16.612;2023-05-07T13:45:04;8.48;;;7.53;;
26598;SDS011;14240;51.064;16.612;2023-05-07T13:47:30;8.52;;;7.00;;
26598;SDS011;14240;51.064;16.612;2023-05-07T13:49:56;12.32;;;8.23;;
26598;SDS011;14240;51.064;16.612;2023-05-07T13:52:22;10.02;;;7.93;;
26598;SDS011;14240;51.064;16.612;2023-05-07T13:54:47;11.60;;;8.35;;
26598;SDS011;14240;51.064;16.612;2023-05-07T13:57:13;10.38;;;8.20;;
26598;SDS011;14240;51.064;16.612;2023-05-07T13:59:40;10.38;;;7.40;;
26598;SDS011;14240;51.064;16.612;2023-05-07T14:02:06;8.75;;;6.63;;
26598;SDS011;14240;51.064;16.612;2023-05-07T14:04:32;7.85;;;5.40;;
26598;SDS011;14240;51.064;16.612;2023-05-07T14:06:57;7.32;;;4.75;;
26598;SDS011;14240;51.064;16.612;2023-05-07T14:09:23;6.18;;;4.43;;
26598;SDS011;14240;51.064;16.612;2023-05-07T14:11:49;8.10;;;5.03;;
26598;SDS011;14240;51.064;16.612;2023-05-07T14:14:18;6.30;;;5.25;;
26598;SDS011;14240;51.064;16.612;2023-05-07T14:16:44;9.30;;;6.90;;
26598;SDS011;14240;51.064;16.612;2023-05-07T14:19:11;10.63;;;6.68;;
26598;SDS011;14240;51.064;16.612;2023-05-07T14:21:37;9.48;;;6.38;;
26598;SDS011;14240;51.064;16.612;2023-05-07T14:24:02;8.55;;;5.50;;
26598;SDS011;14240;51.064;16.612;2023-05-07T14:26:28;6.80;;;5.72;;
26598;SDS011;14240;51.064;16.612;2023-05-07T14:28:54;7.72;;;5.65;;
26598;SDS011;14240;51.064;16.612;2023-05-07T14:31:22;6.72;;;5.57;;
26598;SDS011;14240;51.064;16.612;2023-05-07T14:33:48;8.27;;;5.90;;
26598;SDS011;14240;51.064;16.612;2023-05-07T14:36:15;7.43;;;5.28;;
26598;SDS011;14240;51.064;16.612;2023-05-07T14:38:48;8.95;;;5.78;;
26598;SDS011;14240;51.064;16.612;2023-05-07T14:41:13;9.27;;;5.50;;
26598;SDS011;14240;51.064;16.612;2023-05-07T14:43:39;9.23;;;5.10;;
26598;SDS011;14240;51.064;16.612;2023-05-07T14:46:05;11.52;;;5.32;;
26598;SDS011;14240;51.064;16.612;2023-05-07T14:48:31;6.25;;;4.65;;
26598;SDS011;14240;51.064;16.612;2023-05-07T14:50:57;9.55;;;4.95;;
26598;SDS011;14240;51.064;16.612;2023-05-07T14:53:22;8.77;;;5.45;;
26598;SDS011;14240;51.064;16.612;2023-05-07T14:55:48;9.65;;;5.03;;
26598;SDS011;14240;51.064;16.612;2023-05-07T14:58:14;9.63;;;5.95;;
26598;SDS011;14240;51.064;16.612;2023-05-07T15:00:40;8.88;;;5.68;;
26598;SDS011;14240;51.064;16.612;2023-05-07T15:03:07;8.48;;;5.18;;